Time;durP1;ratioP1;P1;durP2;ratioP2;P2;SDS_P1;SDS_P2;PMS_P1;PMS_P2;Temp;Humidity;BMP_temperature;BMP_pressure;BME280_temperature;BME280_humidity;BME280_pressure;Samples;Min_cycle;Max_cycle;Signal;HPM_P1;HPM_P2
2022/09/20 00:02:17;;;;;;;2.53;1.20;;;;;;;-145.23;100.00;58621.06;5004752;28;20923;-53
2022/09/20 00:04:43;;;;;;;0.93;0.80;;;;;;;-145.23;100.00;58621.06;5008477;28;20233;-53
2022/09/20 00:07:10;;;;;;;1.47;1.00;;;;;;;-145.23;100.00;58621.06;5000130;28;20243;-53
2022/09/20 00:09:37;;;;;;;2.60;1.70;;;;;;;-145.23;100.00;58621.06;5004008;28;20265;-54
2022/09/20 00:12:04;;;;;;;2.10;0.93;;;;;;;-145.23;100.00;58621.06;4996744;28;20230;-54
2022/09/20 00:14:33;;;;;;;1.90;1.20;;;;;;;-145.23;100.00;58621.06;4998159;28;20233;-54
2022/09/20 00:17:00;;;;;;;2.20;1.43;;;;;;;-145.23;100.00;58621.06;4995942;28;20242;-54
2022/09/20 00:19:26;;;;;;;1.53;1.10;;;;;;;-145.23;100.00;58621.06;4999004;28;20316;-54
2022/09/20 00:21:53;;;;;;;2.07;1.20;;;;;;;-145.23;100.00;58621.06;4996524;28;20247;-54
2022/09/20 00:24:20;;;;;;;1.27;1.17;;;;;;;-145.23;100.00;58621.06;4999699;28;20233;-53
2022/09/20 00:26:46;;;;;;;1.47;1.30;;;;;;;-145.23;100.00;58621.06;4991486;28;20229;-53
2022/09/20 00:29:13;;;;;;;1.53;1.20;;;;;;;-145.23;100.00;58621.06;4998947;28;20245;-54
2022/09/20 00:31:41;;;;;;;1.73;1.40;;;;;;;-145.23;100.00;58621.06;5001717;28;20322;-54
2022/09/20 00:36:53;;;;;;;2.47;0.93;;;;;;;-145.23;100.00;58621.06;5006851;28;20368;-53
2022/09/20 00:39:20;;;;;;;3.27;1.30;;;;;;;-145.23;100.00;58621.06;4999530;28;20611;-53
2022/09/20 00:41:48;;;;;;;1.03;0.97;;;;;;;-145.23;100.00;58621.06;4995729;28;20308;-53
2022/09/20 00:44:44;;;;;;;2.67;1.33;;;;;;;-145.23;100.00;58621.06;5004067;28;20264;-53
2022/09/20 00:47:20;;;;;;;2.87;1.20;;;;;;;-145.23;100.00;58621.06;4995369;28;20226;-54
2022/09/20 00:49:47;;;;;;;7.43;1.20;;;;;;;-145.23;100.00;58621.06;4988861;28;20325;-54
2022/09/20 00:52:15;;;;;;;1.03;0.90;;;;;;;-145.23;100.00;58621.06;4997271;28;20321;-54
2022/09/20 00:54:42;;;;;;;2.93;1.10;;;;;;;-145.23;100.00;58621.06;4997006;28;20260;-54
2022/09/20 00:57:09;;;;;;;1.27;1.00;;;;;;;-145.23;100.00;58621.06;5000322;28;20272;-54
2022/09/20 00:59:38;;;;;;;1.00;1.00;;;;;;;-145.23;100.00;58621.06;5007343;28;20770;-55
2022/09/20 01:02:09;;;;;;;2.47;1.20;;;;;;;-145.23;100.00;58621.06;5010108;28;20400;-54
2022/09/20 01:04:39;;;;;;;1.37;1.10;;;;;;;-145.23;100.00;58621.06;4995944;28;20243;-54
2022/09/20 01:07:07;;;;;;;1.03;0.93;;;;;;;-145.23;100.00;58621.06;4997986;28;20301;-54
2022/09/20 01:09:34;;;;;;;1.23;1.10;;;;;;;-145.23;100.00;58621.06;4996939;28;20229;-54
2022/09/20 01:12:03;;;;;;;1.00;0.90;;;;;;;-145.23;100.00;58621.06;4996723;28;20480;-54
2022/09/20 01:14:30;;;;;;;1.33;1.23;;;;;;;-145.23;100.00;58621.06;5003293;28;20311;-54
2022/09/20 01:17:00;;;;;;;1.67;0.93;;;;;;;-145.23;100.00;58621.06;4991690;28;20249;-54
2022/09/20 01:19:33;;;;;;;1.13;0.90;;;;;;;-145.23;100.00;58621.06;5001612;28;20738;-54
2022/09/20 01:22:03;;;;;;;1.80;1.13;;;;;;;-145.23;100.00;58621.06;4996799;28;20226;-54
2022/09/20 01:24:36;;;;;;;3.30;1.20;;;;;;;-145.23;100.00;58621.06;4996215;28;20300;-54
2022/09/20 01:27:12;;;;;;;1.90;1.00;;;;;;;-145.23;100.00;58621.06;4996300;28;20229;-55
2022/09/20 01:29:49;;;;;;;1.83;1.13;;;;;;;-145.23;100.00;58621.06;4990159;28;20245;-54
2022/09/20 01:32:20;;;;;;;0.70;0.70;;;;;;;-145.23;100.00;58621.06;5002956;28;20236;-54
2022/09/20 01:34:48;;;;;;;1.03;1.03;;;;;;;-145.23;100.00;58621.06;4992095;28;20233;-54
2022/09/20 01:37:19;;;;;;;1.23;0.93;;;;;;;-145.23;100.00;58621.06;5019790;28;20229;-54
2022/09/20 01:39:54;;;;;;;3.90;1.57;;;;;;;-145.23;100.00;58621.06;4986648;28;20245;-54
2022/09/20 01:42:25;;;;;;;1.67;0.83;;;;;;;-145.23;100.00;58621.06;4993262;28;20244;-54
2022/09/20 01:45:00;;;;;;;2.07;1.33;;;;;;;-145.23;100.00;58621.06;4991652;28;20237;-54
2022/09/20 01:47:32;;;;;;;1.97;1.10;;;;;;;-145.23;100.00;58621.06;4990281;28;20265;-54
2022/09/20 01:50:07;;;;;;;1.60;1.20;;;;;;;-145.23;100.00;58621.06;5011258;28;20706;-54
2022/09/20 01:52:48;;;;;;;1.80;1.43;;;;;;;-145.23;100.00;58621.06;5012629;28;20229;-63
2022/09/20 01:55:50;;;;;;;2.03;1.57;;;;;;;-145.23;100.00;58621.06;4992251;28;20222;-55
2022/09/20 01:58:56;;;;;;;2.10;0.97;;;;;;;-145.23;100.00;58621.06;4993027;28;20237;-55
2022/09/20 02:01:43;;;;;;;1.20;1.10;;;;;;;-145.23;100.00;58621.06;4994411;28;20248;-53
2022/09/20 02:04:39;;;;;;;1.73;1.07;;;;;;;-145.23;100.00;58621.06;5000491;28;20231;-55
2022/09/20 02:07:20;;;;;;;1.20;1.10;;;;;;;-145.23;100.00;58621.06;5000219;28;20759;-53
2022/09/20 02:10:14;;;;;;;0.97;0.97;;;;;;;-145.23;100.00;58621.06;4989305;28;20233;-54
2022/09/20 02:12:55;;;;;;;1.10;1.10;;;;;;;-145.23;100.00;58621.06;4998292;28;20233;-55
2022/09/20 02:15:35;;;;;;;1.40;1.30;;;;;;;-145.23;100.00;58621.06;5004009;28;20312;-54
2022/09/20 02:18:14;;;;;;;2.10;1.30;;;;;;;-145.23;100.00;58621.06;4992299;28;20348;-54
2022/09/20 02:20:44;;;;;;;1.23;1.13;;;;;;;-145.23;100.00;58621.06;4994612;28;20265;-54
2022/09/20 02:23:22;;;;;;;1.40;1.30;;;;;;;-145.23;100.00;58621.06;4999196;28;20896;-55
2022/09/20 02:26:05;;;;;;;1.40;1.20;;;;;;;-145.23;100.00;58621.06;4993967;28;20248;-54
2022/09/20 02:28:48;;;;;;;3.53;1.20;;;;;;;-145.23;100.00;58621.06;5000778;28;20236;-54
2022/09/20 02:31:23;;;;;;;2.60;0.90;;;;;;;-145.23;100.00;58621.06;4991423;28;20280;-55
2022/09/20 02:34:05;;;;;;;1.83;0.77;;;;;;;-145.23;100.00;58621.06;4987685;28;20244;-54
2022/09/20 02:36:41;;;;;;;1.57;0.80;;;;;;;-145.23;100.00;58621.06;5006832;28;20241;-54
2022/09/20 02:39:11;;;;;;;2.20;1.00;;;;;;;-145.23;100.00;58621.06;5005398;28;20237;-55
2022/09/20 02:41:53;;;;;;;2.53;1.10;;;;;;;-145.23;100.00;58621.06;5002337;28;20237;-54
2022/09/20 02:44:27;;;;;;;4.10;1.37;;;;;;;-145.23;100.00;58621.06;4990062;28;20237;-54
2022/09/20 02:47:00;;;;;;;4.17;1.20;;;;;;;-145.23;100.00;58621.06;4997729;28;20723;-54
2022/09/20 02:49:33;;;;;;;1.07;0.97;;;;;;;-145.23;100.00;58621.06;4998177;28;20769;-54
2022/09/20 02:52:07;;;;;;;1.40;1.30;;;;;;;-145.23;100.00;58621.06;5005883;28;20229;-54
2022/09/20 02:54:37;;;;;;;2.93;1.30;;;;;;;-145.23;100.00;58621.06;4988992;28;20238;-55
2022/09/20 02:57:12;;;;;;;2.47;1.07;;;;;;;-145.23;100.00;58621.06;4991458;28;20249;-55
2022/09/20 02:59:45;;;;;;;1.37;1.10;;;;;;;-145.23;100.00;58621.06;5000556;28;20340;-55
2022/09/20 03:02:20;;;;;;;1.73;0.90;;;;;;;-145.23;100.00;58621.06;4991243;28;20288;-54
2022/09/20 03:04:58;;;;;;;1.77;0.90;;;;;;;-145.23;100.00;58621.06;5006925;28;20230;-54
2022/09/20 03:07:32;;;;;;;0.80;0.80;;;;;;;-145.23;100.00;58621.06;5006381;28;20256;-54
2022/09/20 03:10:07;;;;;;;0.80;0.80;;;;;;;-145.23;100.00;58621.06;5000617;28;20242;-54
2022/09/20 03:12:42;;;;;;;1.30;0.80;;;;;;;-145.23;100.00;58621.06;4993171;28;20232;-55
2022/09/20 03:15:16;;;;;;;1.07;0.97;;;;;;;-145.23;100.00;58621.06;4995584;28;20225;-54
2022/09/20 03:17:47;;;;;;;1.63;0.83;;;;;;;-145.23;100.00;58621.06;5010332;28;20240;-54
2022/09/20 03:20:23;;;;;;;0.80;0.80;;;;;;;-145.23;100.00;58621.06;4992353;28;20252;-54
2022/09/20 03:22:57;;;;;;;2.00;0.90;;;;;;;-145.23;100.00;58621.06;4992299;28;20264;-54
2022/09/20 03:25:34;;;;;;;0.97;0.97;;;;;;;-145.23;100.00;58621.06;4993432;28;20737;-54
2022/09/20 03:28:08;;;;;;;0.83;0.83;;;;;;;-145.23;100.00;58621.06;5006324;28;20729;-54
2022/09/20 03:30:46;;;;;;;4.57;0.80;;;;;;;-145.23;100.00;58621.06;4986842;28;20233;-54
2022/09/20 03:33:16;;;;;;;1.33;1.23;;;;;;;-145.23;100.00;58621.06;4997797;28;20229;-54
2022/09/20 03:35:52;;;;;;;1.10;1.10;;;;;;;-145.23;100.00;58621.06;4999654;28;20233;-54
2022/09/20 03:38:34;;;;;;;1.87;1.77;;;;;;;-145.23;100.00;58621.06;4994169;28;20763;-55
2022/09/20 03:41:22;;;;;;;1.63;1.53;;;;;;;-145.23;100.00;58621.06;4995250;28;20238;-54
2022/09/20 03:44:00;;;;;;;2.37;2.00;;;;;;;-145.23;100.00;58621.06;5019600;28;20296;-54
2022/09/20 03:46:28;;;;;;;3.77;1.90;;;;;;;-145.23;100.00;58621.06;5000646;28;20229;-54
2022/09/20 03:49:30;;;;;;;2.10;1.90;;;;;;;-145.23;100.00;58621.06;4998458;28;20636;-54
2022/09/20 03:52:06;;;;;;;1.43;1.27;;;;;;;-145.23;100.00;58621.06;4983407;28;20229;-54
2022/09/20 03:54:56;;;;;;;4.73;1.40;;;;;;;-145.23;100.00;58621.06;4993051;28;20234;-54
2022/09/20 03:57:37;;;;;;;1.57;1.20;;;;;;;-145.23;100.00;58621.06;5010974;28;20225;-54
2022/09/20 04:00:13;;;;;;;1.47;1.30;;;;;;;-145.23;100.00;58621.06;4992092;28;20245;-54
2022/09/20 04:02:51;;;;;;;2.10;2.00;;;;;;;-145.23;100.00;58621.06;4999097;28;20276;-54
2022/09/20 04:05:21;;;;;;;1.80;1.70;;;;;;;-145.23;100.00;58621.06;4994874;28;20232;-55
2022/09/20 04:07:55;;;;;;;2.10;1.43;;;;;;;-145.23;100.00;58621.06;4997057;28;20237;-54
2022/09/20 04:10:38;;;;;;;1.40;1.30;;;;;;;-145.23;100.00;58621.06;5009590;28;20703;-53
2022/09/20 04:13:15;;;;;;;1.77;1.40;;;;;;;-145.23;100.00;58621.06;4998494;28;20320;-53
2022/09/20 04:15:50;;;;;;;1.10;1.10;;;;;;;-145.23;100.00;58621.06;4986944;28;20320;-54
2022/09/20 04:18:23;;;;;;;1.80;1.70;;;;;;;-145.23;100.00;58621.06;4993299;28;20297;-54
2022/09/20 04:20:55;;;;;;;1.30;1.20;;;;;;;-145.23;100.00;58621.06;5014159;28;20233;-54
2022/09/20 04:23:32;;;;;;;1.67;1.53;;;;;;;-145.23;100.00;58621.06;4995976;28;20236;-54
2022/09/20 04:26:00;;;;;;;1.73;1.37;;;;;;;-145.23;100.00;58621.06;4993322;28;20321;-54
2022/09/20 04:28:30;;;;;;;2.00;1.30;;;;;;;-145.23;100.00;58621.06;4993724;28;20225;-54
2022/09/20 04:31:07;;;;;;;1.50;1.40;;;;;;;-145.23;100.00;58621.06;4995258;28;20237;-54
2022/09/20 04:33:38;;;;;;;1.40;1.13;;;;;;;-145.23;100.00;58621.06;4994717;28;21112;-55
2022/09/20 04:36:29;;;;;;;2.63;1.40;;;;;;;-145.23;100.00;58621.06;5009279;28;20294;-54
2022/09/20 04:39:05;;;;;;;3.47;1.40;;;;;;;-145.23;100.00;58621.06;4990695;28;20253;-54
2022/09/20 04:42:09;;;;;;;1.47;1.27;;;;;;;-145.23;100.00;58621.06;5001617;28;20367;-54
2022/09/20 04:45:11;;;;;;;4.13;1.80;;;;;;;-145.23;100.00;58621.06;5004537;28;20235;-54
2022/09/20 04:47:59;;;;;;;1.30;1.20;;;;;;;-145.23;100.00;58621.06;4992979;28;20244;-53
2022/09/20 04:50:47;;;;;;;1.47;1.37;;;;;;;-145.23;100.00;58621.06;4991698;28;20222;-54
2022/09/20 04:53:57;;;;;;;1.40;1.30;;;;;;;-145.23;100.00;58621.06;5008545;28;20240;-54
2022/09/20 04:56:36;;;;;;;3.50;1.23;;;;;;;-145.23;100.00;58621.06;4995642;28;20266;-54
2022/09/20 04:59:06;;;;;;;1.33;1.23;;;;;;;-145.23;100.00;58621.06;5004688;28;20245;-54
2022/09/20 05:01:54;;;;;;;2.33;1.30;;;;;;;-145.23;100.00;58621.06;4996355;28;20251;-54
2022/09/20 05:04:43;;;;;;;5.17;1.67;;;;;;;-145.23;100.00;58621.06;4989118;28;20368;-54
2022/09/20 05:07:37;;;;;;;2.17;1.27;;;;;;;-145.23;100.00;58621.06;5023209;28;20232;-54
2022/09/20 05:10:20;;;;;;;1.53;1.20;;;;;;;-145.23;100.00;58621.06;4949402;28;20241;-54
2022/09/20 05:13:12;;;;;;;9.07;1.97;;;;;;;-145.23;100.00;58621.06;4996178;28;20229;-54
2022/09/20 05:15:44;;;;;;;5.10;1.80;;;;;;;-145.23;100.00;58621.06;4990946;28;20230;-54
2022/09/20 05:18:26;;;;;;;3.00;1.57;;;;;;;-145.23;100.00;58621.06;4994747;28;20240;-54
2022/09/20 05:21:07;;;;;;;1.03;1.00;;;;;;;-145.23;100.00;58621.06;5003688;28;20234;-54
2022/09/20 05:23:46;;;;;;;1.30;1.20;;;;;;;-145.23;100.00;58621.06;4986817;28;20680;-54
2022/09/20 05:26:18;;;;;;;1.43;1.33;;;;;;;-145.23;100.00;58621.06;4995386;28;20718;-54
2022/09/20 05:28:53;;;;;;;1.50;1.40;;;;;;;-145.23;100.00;58621.06;5000856;28;20245;-54
2022/09/20 05:31:27;;;;;;;1.77;0.93;;;;;;;-145.23;100.00;58621.06;4991350;28;20722;-54
2022/09/20 05:33:57;;;;;;;3.33;1.53;;;;;;;-145.23;100.00;58621.06;5004127;28;20265;-54
2022/09/20 05:36:30;;;;;;;3.27;1.60;;;;;;;-145.23;100.00;58621.06;5004696;28;20232;-54
2022/09/20 05:39:01;;;;;;;2.70;1.60;;;;;;;-145.23;100.00;58621.06;5005301;28;20264;-55
2022/09/20 05:41:35;;;;;;;1.70;1.60;;;;;;;-145.23;100.00;58621.06;4994730;28;20298;-54
2022/09/20 05:44:08;;;;;;;3.70;1.63;;;;;;;-145.23;100.00;58621.06;5006124;28;20236;-54
2022/09/20 05:46:43;;;;;;;1.63;1.47;;;;;;;-145.23;100.00;58621.06;4993790;28;20237;-54
2022/09/20 05:49:18;;;;;;;1.60;1.50;;;;;;;-145.23;100.00;58621.06;5012578;28;20247;-55
2022/09/20 05:52:11;;;;;;;1.77;1.67;;;;;;;-145.23;100.00;58621.06;4993188;28;20233;-54
2022/09/20 05:54:59;;;;;;;5.47;2.20;;;;;;;-145.23;100.00;58621.06;5013950;28;20228;-53
2022/09/20 05:57:32;;;;;;;3.77;2.00;;;;;;;-145.23;100.00;58621.06;4995113;28;20743;-54
2022/09/20 06:00:04;;;;;;;2.03;1.50;;;;;;;-145.23;100.00;58621.06;4997789;28;20327;-55
2022/09/20 06:02:40;;;;;;;3.50;2.07;;;;;;;-145.23;100.00;58621.06;5000257;28;20319;-54
2022/09/20 06:05:14;;;;;;;4.30;1.70;;;;;;;-145.23;100.00;58621.06;4993115;28;20417;-54
2022/09/20 06:07:52;;;;;;;2.40;2.00;;;;;;;-145.23;100.00;58621.06;4995398;28;20261;-54
2022/09/20 06:10:47;;;;;;;2.83;1.60;;;;;;;-145.23;100.00;58621.06;4996951;28;20790;-54
2022/09/20 06:13:29;;;;;;;1.90;1.70;;;;;;;-145.23;100.00;58621.06;4993988;28;20226;-54
2022/09/20 06:16:00;;;;;;;2.13;1.90;;;;;;;-145.23;100.00;58621.06;4985493;28;20242;-55
2022/09/20 06:18:30;;;;;;;2.83;1.60;;;;;;;-145.23;100.00;58621.06;4998869;28;20237;-54
2022/09/20 06:21:02;;;;;;;2.23;1.83;;;;;;;-145.23;100.00;58621.06;4989931;28;20243;-54
2022/09/20 06:23:31;;;;;;;3.20;1.63;;;;;;;-145.23;100.00;58621.06;4990861;28;20702;-54
2022/09/20 06:26:01;;;;;;;5.13;2.13;;;;;;;-145.23;100.00;58621.06;4998497;28;20248;-53
2022/09/20 06:28:30;;;;;;;3.57;2.13;;;;;;;-145.23;100.00;58621.06;5000830;28;20242;-55
2022/09/20 06:30:58;;;;;;;3.77;2.17;;;;;;;-145.23;100.00;58621.06;4993307;28;20315;-54
2022/09/20 06:33:27;;;;;;;2.60;2.33;;;;;;;-145.23;100.00;58621.06;4997775;28;20252;-54
2022/09/20 06:35:56;;;;;;;5.03;1.90;;;;;;;-145.23;100.00;58621.06;5001792;28;20258;-55
2022/09/20 06:41:30;;;;;;;1.80;1.43;;;;;;;-145.23;100.00;58621.06;4985583;28;20291;-54
2022/09/20 06:43:58;;;;;;;2.03;1.87;;;;;;;-145.23;100.00;58621.06;5007824;28;20316;-58
2022/09/20 06:46:27;;;;;;;2.80;1.50;;;;;;;-145.23;100.00;58621.06;5001843;28;20268;-54
2022/09/20 06:48:54;;;;;;;4.33;1.83;;;;;;;-145.23;100.00;58621.06;5015489;28;20240;-53
2022/09/20 06:51:21;;;;;;;1.77;1.67;;;;;;;-145.23;100.00;58621.06;5005925;28;20458;-54
2022/09/20 06:53:48;;;;;;;1.37;1.10;;;;;;;-145.23;100.00;58621.06;5001033;28;20890;-53
2022/09/20 06:56:17;;;;;;;1.67;1.57;;;;;;;-145.23;100.00;58621.06;5006539;28;20240;-54
2022/09/20 06:58:43;;;;;;;2.33;2.13;;;;;;;-145.23;100.00;58621.06;4992281;28;20704;-54
2022/09/20 07:01:10;;;;;;;3.13;1.63;;;;;;;-145.23;100.00;58621.06;5010366;28;20237;-53
2022/09/20 07:03:38;;;;;;;2.73;1.60;;;;;;;-145.23;100.00;58621.06;4997322;28;20656;-54
2022/09/20 07:06:05;;;;;;;2.93;1.83;;;;;;;-145.23;100.00;58621.06;4999135;28;20248;-54
2022/09/20 07:08:32;;;;;;;2.00;1.80;;;;;;;-145.23;100.00;58621.06;4997926;28;20735;-53
2022/09/20 07:11:03;;;;;;;1.70;1.60;;;;;;;-145.23;100.00;58621.06;4999333;28;20234;-54
2022/09/20 07:13:30;;;;;;;2.37;2.00;;;;;;;-145.23;100.00;58621.06;4986926;28;20242;-54
2022/09/20 07:16:00;;;;;;;2.47;1.63;;;;;;;-145.23;100.00;58621.06;5002684;28;20278;-54
2022/09/20 07:18:26;;;;;;;5.13;2.20;;;;;;;-145.23;100.00;58621.06;4987967;28;20237;-54
2022/09/20 07:20:54;;;;;;;4.83;2.17;;;;;;;-145.23;100.00;58621.06;5008193;28;20241;-54
2022/09/20 07:23:21;;;;;;;1.97;1.77;;;;;;;-145.23;100.00;58621.06;5010061;28;20228;-53
2022/09/20 07:25:47;;;;;;;3.33;2.10;;;;;;;-145.23;100.00;58621.06;5007173;28;20261;-53
2022/09/20 07:28:13;;;;;;;4.33;2.03;;;;;;;-145.23;100.00;58621.06;4999848;28;20249;-54
2022/09/20 07:30:40;;;;;;;2.63;2.43;;;;;;;-145.23;100.00;58621.06;4996410;28;20241;-54
2022/09/20 07:33:08;;;;;;;4.00;2.20;;;;;;;-145.23;100.00;58621.06;4999268;28;20233;-54
2022/09/20 07:35:36;;;;;;;3.37;2.40;;;;;;;-145.23;100.00;58621.06;5005518;28;20236;-56
2022/09/20 07:38:04;;;;;;;4.73;2.33;;;;;;;-145.23;100.00;58621.06;4994446;28;20234;-54
2022/09/20 07:40:30;;;;;;;2.37;1.80;;;;;;;-145.23;100.00;58621.06;5009696;28;20237;-54
2022/09/20 07:42:57;;;;;;;2.13;2.03;;;;;;;-145.23;100.00;58621.06;4994942;28;20233;-54
2022/09/20 07:45:26;;;;;;;4.53;2.50;;;;;;;-145.23;100.00;58621.06;4991101;28;20809;-54
2022/09/20 07:47:53;;;;;;;2.93;2.30;;;;;;;-145.23;100.00;58621.06;4994776;28;20241;-54
2022/09/20 07:50:20;;;;;;;2.83;2.10;;;;;;;-145.23;100.00;58621.06;5005897;28;20233;-53
2022/09/20 07:52:47;;;;;;;4.60;1.83;;;;;;;-145.23;100.00;58621.06;4996441;28;20308;-53
2022/09/20 07:55:15;;;;;;;2.40;2.20;;;;;;;-145.23;100.00;58621.06;5003618;28;20333;-54
2022/09/20 07:57:41;;;;;;;2.37;2.17;;;;;;;-145.23;100.00;58621.06;4996836;28;20233;-54
2022/09/20 08:00:09;;;;;;;2.07;1.90;;;;;;;-145.23;100.00;58621.06;4996321;28;20328;-53
2022/09/20 08:02:36;;;;;;;3.63;2.07;;;;;;;-145.23;100.00;58621.06;4991886;28;20230;-54
2022/09/20 08:05:03;;;;;;;6.23;2.23;;;;;;;-145.23;100.00;58621.06;4993544;28;20244;-53
2022/09/20 08:07:30;;;;;;;3.20;1.80;;;;;;;-145.23;100.00;58621.06;4990116;28;20284;-55
2022/09/20 08:09:56;;;;;;;5.60;2.03;;;;;;;-145.23;100.00;58621.06;4990355;28;20238;-53
2022/09/20 08:12:25;;;;;;;8.40;1.90;;;;;;;-145.23;100.00;58621.06;4989221;28;20726;-53
2022/09/20 08:14:52;;;;;;;1.67;1.57;;;;;;;-145.23;100.00;58621.06;4989186;28;20253;-53
2022/09/20 08:17:19;;;;;;;4.67;2.60;;;;;;;-145.23;100.00;58621.06;4990835;28;20312;-53
2022/09/20 08:19:45;;;;;;;2.25;2.05;;;;;;;-145.23;100.00;58621.06;5012187;28;20319;-54
2022/09/20 08:22:12;;;;;;;4.03;2.03;;;;;;;-145.23;100.00;58621.06;4994677;28;20229;-55
2022/09/20 08:24:38;;;;;;;3.97;1.90;;;;;;;-145.23;100.00;58621.06;4995313;28;20603;-55
2022/09/20 08:27:05;;;;;;;4.32;2.55;;;;;;;-145.23;100.00;58621.06;4991765;28;20230;-55
2022/09/20 08:29:33;;;;;;;4.20;1.75;;;;;;;-145.23;100.00;58621.06;4994105;28;20331;-55
2022/09/20 08:32:01;;;;;;;4.28;2.05;;;;;;;-145.23;100.00;58621.06;5000631;28;20249;-54
2022/09/20 08:34:27;;;;;;;3.15;2.13;;;;;;;-145.23;100.00;58621.06;4999044;28;20229;-54
2022/09/20 08:36:55;;;;;;;3.75;2.40;;;;;;;-145.23;100.00;58621.06;4985263;28;20611;-54
2022/09/20 08:39:22;;;;;;;4.35;1.92;;;;;;;-145.23;100.00;58621.06;4984995;28;20241;-54
2022/09/20 08:41:54;;;;;;;3.78;2.33;;;;;;;-145.23;100.00;58621.06;4990017;28;20241;-53
2022/09/20 08:44:25;;;;;;;2.47;2.10;;;;;;;-145.23;100.00;58621.06;4994421;28;20229;-54
2022/09/20 08:47:02;;;;;;;3.03;2.40;;;;;;;-145.23;100.00;58621.06;4999449;28;20299;-68
2022/09/20 08:49:29;;;;;;;2.45;2.00;;;;;;;-145.23;100.00;58621.06;4989015;28;20239;-65
2022/09/20 08:51:58;;;;;;;9.10;2.47;;;;;;;-145.23;100.00;58621.06;4985110;28;21752;-70
2022/09/20 08:54:26;;;;;;;1.90;1.80;;;;;;;-145.23;100.00;58621.06;5005536;28;20242;-66
2022/09/20 08:56:53;;;;;;;2.65;2.08;;;;;;;-145.23;100.00;58621.06;5002030;28;20293;-66
2022/09/20 08:59:21;;;;;;;5.35;2.28;;;;;;;-145.23;100.00;58621.06;5007407;28;21122;-69
2022/09/20 09:01:51;;;;;;;2.38;1.67;;;;;;;-145.23;100.00;58621.06;4997979;28;20284;-55
2022/09/20 09:04:22;;;;;;;8.45;1.88;;;;;;;-145.23;100.00;58621.06;4991315;28;20691;-55
2022/09/20 09:06:50;;;;;;;1.85;1.75;;;;;;;-145.23;100.00;58621.06;4997292;28;20233;-55
2022/09/20 09:09:18;;;;;;;10.27;3.38;;;;;;;-145.23;100.00;58621.06;4991346;28;20292;-55
2022/09/20 09:11:46;;;;;;;1.95;1.85;;;;;;;-145.23;100.00;58621.06;4998118;28;20240;-55
2022/09/20 09:17:05;;;;;;;3.50;2.42;;;;;;;-145.23;100.00;58621.06;5003312;28;20263;-54
2022/09/20 09:19:43;;;;;;;2.53;2.20;;;;;;;-145.23;100.00;58621.06;5014376;28;20233;-55
2022/09/20 09:22:10;;;;;;;6.07;2.30;;;;;;;-145.23;100.00;58621.06;4994329;28;20249;-55
2022/09/20 09:24:36;;;;;;;2.20;2.00;;;;;;;-145.23;100.00;58621.06;5005590;28;20232;-58
2022/09/20 09:27:09;;;;;;;3.60;1.77;;;;;;;-145.23;100.00;58621.06;4997503;28;20255;-54
2022/09/20 09:29:35;;;;;;;2.05;1.88;;;;;;;-145.23;100.00;58621.06;5006804;28;20628;-53
2022/09/20 09:32:19;;;;;;;2.97;2.60;;;;;;;-145.23;100.00;58621.06;4995254;28;20244;-54
2022/09/20 09:34:47;;;;;;;4.30;3.20;;;;;;;-145.23;100.00;58621.06;5003458;28;20233;-55
2022/09/20 09:37:24;;;;;;;4.05;2.55;;;;;;;-145.23;100.00;58621.06;4992367;28;20225;-54
2022/09/20 09:40:07;;;;;;;5.32;2.90;;;;;;;-145.23;100.00;58621.06;4982617;28;20717;-55
2022/09/20 09:42:34;;;;;;;4.00;2.53;;;;;;;-145.23;100.00;58621.06;5002583;28;20562;-54
2022/09/20 09:45:10;;;;;;;3.80;2.65;;;;;;;-145.23;100.00;58621.06;4993688;28;20233;-55
2022/09/20 09:47:37;;;;;;;4.07;2.63;;;;;;;-145.23;100.00;58621.06;4990922;28;20244;-56
2022/09/20 09:50:07;;;;;;;4.88;2.78;;;;;;;-145.23;100.00;58621.06;4991458;28;20253;-55
2022/09/20 09:52:35;;;;;;;7.18;3.05;;;;;;;-145.23;100.00;58621.06;4994103;28;20241;-55
2022/09/20 09:55:03;;;;;;;3.75;2.90;;;;;;;-145.23;100.00;58621.06;4997554;28;20647;-55
2022/09/20 09:57:39;;;;;;;2.75;2.55;;;;;;;-145.23;100.00;58621.06;4994844;28;20821;-55
2022/09/20 10:00:11;;;;;;;7.47;3.20;;;;;;;-145.23;100.00;58621.06;4994047;28;20232;-55
2022/09/20 10:03:10;;;;;;;2.38;2.10;;;;;;;-145.23;100.00;58621.06;4990651;28;20241;-55
2022/09/20 10:05:44;;;;;;;3.28;2.50;;;;;;;-145.23;100.00;58621.06;4991602;28;20218;-57
2022/09/20 10:08:20;;;;;;;2.80;2.60;;;;;;;-145.23;100.00;58621.06;5004407;28;20225;-54
2022/09/20 10:10:59;;;;;;;3.53;2.72;;;;;;;-145.23;100.00;58621.06;4988125;28;20308;-55
2022/09/20 10:13:29;;;;;;;4.22;2.47;;;;;;;-145.23;100.00;58621.06;4997285;28;20241;-54
2022/09/20 10:16:03;;;;;;;3.78;2.72;;;;;;;-145.23;100.00;58621.06;5003364;28;20237;-54
2022/09/20 10:18:37;;;;;;;2.53;1.88;;;;;;;-145.23;100.00;58621.06;4985492;28;20241;-54
2022/09/20 10:21:16;;;;;;;1.75;1.65;;;;;;;-145.23;100.00;58621.06;4991550;28;20670;-54
2022/09/20 10:23:51;;;;;;;2.67;2.28;;;;;;;-145.23;100.00;58621.06;4991256;28;20245;-54
2022/09/20 10:26:26;;;;;;;6.03;3.17;;;;;;;-145.23;100.00;58621.06;4987905;28;20722;-54
2022/09/20 10:29:02;;;;;;;5.80;2.47;;;;;;;-145.23;100.00;58621.06;5003465;28;20236;-55
2022/09/20 10:31:41;;;;;;;5.10;3.53;;;;;;;-145.23;100.00;58621.06;4992320;28;20239;-55
2022/09/20 10:34:21;;;;;;;3.33;2.95;;;;;;;-145.23;100.00;58621.06;5003910;28;20603;-55
2022/09/20 10:36:53;;;;;;;3.55;2.28;;;;;;;-145.23;100.00;58621.06;4994260;28;20305;-55
2022/09/20 10:39:24;;;;;;;3.95;2.60;;;;;;;-145.23;100.00;58621.06;4985644;28;20289;-54
2022/09/20 10:44:51;;;;;;;3.40;3.10;;;;;;;-145.23;100.00;58621.06;4993389;28;20240;-55
2022/09/20 10:47:20;;;;;;;2.67;2.20;;;;;;;-145.23;100.00;58621.06;4985633;28;20316;-54
2022/09/20 10:49:55;;;;;;;3.55;2.50;;;;;;;-145.23;100.00;58621.06;4994836;28;20237;-55
2022/09/20 10:52:37;;;;;;;2.45;2.22;;;;;;;-145.23;100.00;58621.06;4994283;28;20232;-55
2022/09/20 10:55:24;;;;;;;3.85;2.15;;;;;;;-145.23;100.00;58621.06;5000200;28;20848;-54
2022/09/20 10:58:00;;;;;;;3.10;2.75;;;;;;;-145.23;100.00;58621.06;4993607;28;20683;-55
2022/09/20 11:00:37;;;;;;;3.80;2.33;;;;;;;-145.23;100.00;58621.06;4995215;28;20308;-55
2022/09/20 11:03:16;;;;;;;4.55;2.53;;;;;;;-145.23;100.00;58621.06;5006178;28;20244;-55
2022/09/20 11:05:49;;;;;;;3.42;2.28;;;;;;;-145.23;100.00;58621.06;5005819;28;20233;-55
2022/09/20 11:08:21;;;;;;;4.38;2.65;;;;;;;-145.23;100.00;58621.06;4996676;28;20234;-54
2022/09/20 11:10:51;;;;;;;3.42;2.00;;;;;;;-145.23;100.00;58621.06;4999127;28;20233;-54
2022/09/20 11:13:24;;;;;;;8.18;2.25;;;;;;;-145.23;100.00;58621.06;5007441;28;20761;-55
2022/09/20 11:15:58;;;;;;;2.28;1.80;;;;;;;-145.23;100.00;58621.06;5005127;28;20308;-54
2022/09/20 11:18:29;;;;;;;3.20;1.95;;;;;;;-145.23;100.00;58621.06;4991904;28;20856;-56
2022/09/20 11:21:03;;;;;;;2.50;1.27;;;;;;;-145.23;100.00;58621.06;5000228;28;20241;-64
2022/09/20 11:23:38;;;;;;;2.92;1.75;;;;;;;-145.23;100.00;58621.06;4990540;28;20234;-63
2022/09/20 11:26:08;;;;;;;5.13;1.92;;;;;;;-145.23;100.00;58621.06;5003091;28;20231;-64
2022/09/20 11:28:38;;;;;;;6.23;2.37;;;;;;;-145.23;100.00;58621.06;5009786;28;20237;-58
2022/09/20 11:31:09;;;;;;;3.30;1.57;;;;;;;-145.23;100.00;58621.06;5003222;28;20229;-56
2022/09/20 11:33:40;;;;;;;4.27;2.03;;;;;;;-145.23;100.00;58621.06;4999098;28;20679;-54
2022/09/20 11:36:10;;;;;;;3.70;1.90;;;;;;;-145.23;100.00;58621.06;4997436;28;20229;-54
2022/09/20 11:38:41;;;;;;;8.80;3.70;;;;;;;-145.23;100.00;58621.06;4998069;28;20237;-53
2022/09/20 11:41:12;;;;;;;6.40;5.67;;;;;;;-145.23;100.00;58621.06;4991317;28;20260;-54
2022/09/20 11:43:44;;;;;;;9.93;6.63;;;;;;;-145.23;100.00;58621.06;5011401;28;20230;-53
2022/09/20 11:46:13;;;;;;;2.50;2.10;;;;;;;-145.23;100.00;58621.06;4994507;28;20640;-54
2022/09/20 11:48:44;;;;;;;2.10;1.93;;;;;;;-145.23;100.00;58621.06;4988786;28;20248;-55
2022/09/20 11:51:48;;;;;;;2.20;2.00;;;;;;;-145.23;100.00;58621.06;4998189;28;20631;-55